Time;durP1;ratioP1;P1;durP2;ratioP2;P2;SDS_P1;SDS_P2;PMS_P1;PMS_P2;Temp;Humidity;BMP_temperature;BMP_pressure;BME280_temperature;BME280_humidity;BME280_pressure;Samples;Min_cycle;Max_cycle;Signal;HPM_P1;HPM_P2
2023/08/20 00:00:55;;;;;;;12.30;9.65;;;;;;;;;;5003698;28;20112;-58
2023/08/20 00:03:29;;;;;;;14.45;13.13;;;;;;;;;;5002173;28;20046;-58
2023/08/20 00:05:57;;;;;;;16.73;9.52;;;;;;;;;;5003502;28;20192;-57
2023/08/20 00:08:46;;;;;;;17.90;11.10;;;;;;;;;;4977111;28;20061;-58
2023/08/20 00:11:20;;;;;;;13.60;10.63;;;;;;;;;;4982958;28;20046;-58
2023/08/20 00:13:54;;;;;;;18.00;10.57;;;;;;;;;;4987040;28;20050;-60
2023/08/20 00:16:21;;;;;;;15.40;10.63;;;;;;;;;;4984519;28;20132;-60
2023/08/20 00:18:49;;;;;;;14.07;10.73;;;;;;;;;;4984304;28;20043;-60
2023/08/20 00:21:23;;;;;;;15.27;10.90;;;;;;;;;;4984819;28;20057;-61
2023/08/20 00:23:50;;;;;;;;;;;;;;;;;;4987781;28;20902;-61
2023/08/20 00:26:24;;;;;;;15.48;11.23;;;;;;;;;;4981480;28;19964;-61
2023/08/20 00:28:51;;;;;;;;;;;;;;;;;;4986795;28;20056;-50
2023/08/20 00:31:19;;;;;;;17.65;11.50;;;;;;;;;;4984982;28;19921;-51
2023/08/20 00:33:53;;;;;;;14.85;11.65;;;;;;;;;;4980969;28;20141;-51
2023/08/20 00:36:33;;;;;;;19.30;12.63;;;;;;;;;;4982862;28;20860;-49
2023/08/20 00:39:07;;;;;;;17.60;12.65;;;;;;;;;;4987379;28;20058;-51
2023/08/20 00:41:34;;;;;;;18.30;13.07;;;;;;;;;;4984881;28;20534;-63
2023/08/20 00:44:01;;;;;;;17.35;14.02;;;;;;;;;;4984470;28;20062;-62
2023/08/20 00:46:37;;;;;;;22.55;14.23;;;;;;;;;;4980176;28;20062;-62
2023/08/20 00:49:04;;;;;;;18.98;13.63;;;;;;;;;;4985899;28;20055;-62
2023/08/20 00:51:38;;;;;;;21.02;13.75;;;;;;;;;;4982056;28;20058;-61
2023/08/20 00:54:05;;;;;;;17.85;13.13;;;;;;;;;;4986006;28;20054;-62
2023/08/20 00:56:33;;;;;;;18.15;13.60;;;;;;;;;;4980981;28;20578;-62
2023/08/20 00:59:07;;;;;;;21.63;14.27;;;;;;;;;;4984697;28;20141;-61
2023/08/20 01:01:34;;;;;;;19.25;13.30;;;;;;;;;;4984121;28;20113;-62
2023/08/20 01:04:08;;;;;;;19.58;12.80;;;;;;;;;;4982156;28;20145;-61
2023/08/20 01:06:49;;;;;;;16.77;12.88;;;;;;;;;;4983923;28;20660;-54
2023/08/20 01:09:50;;;;;;;22.65;13.18;;;;;;;;;;4995825;28;20492;-61
2023/08/20 01:12:19;;;;;;;15.00;10.27;;;;;;;;;;5001398;28;20061;-61
2023/08/20 01:14:53;;;;;;;19.17;12.10;;;;;;;;;;5001290;28;20726;-61
2023/08/20 01:17:20;;;;;;;18.00;12.68;;;;;;;;;;4980494;28;20061;-61
2023/08/20 01:19:48;;;;;;;21.10;13.32;;;;;;;;;;4999193;28;20108;-61
2023/08/20 01:22:28;;;;;;;21.30;13.57;;;;;;;;;;4994613;28;20141;-61
2023/08/20 01:25:01;;;;;;;20.65;13.75;;;;;;;;;;4997124;28;20104;-49
2023/08/20 01:27:35;;;;;;;19.42;13.82;;;;;;;;;;4995550;28;20050;-54
2023/08/20 01:30:03;;;;;;;;;;;;;;;;;;4999115;28;20132;-52
2023/08/20 01:32:30;;;;;;;21.58;13.23;;;;;;;;;;4997547;28;19921;-54
2023/08/20 01:35:05;;;;;;;19.02;12.98;;;;;;;;;;5002745;28;20046;-58
2023/08/20 01:37:38;;;;;;;21.95;14.20;;;;;;;;;;4998728;28;20057;-54
2023/08/20 01:40:06;;;;;;;20.45;13.95;;;;;;;;;;4998327;28;20109;-54
2023/08/20 01:42:34;;;;;;;18.13;13.50;;;;;;;;;;4994275;28;20062;-54
2023/08/20 01:45:08;;;;;;;17.83;12.85;;;;;;;;;;4998589;28;20045;-51
2023/08/20 01:47:36;;;;;;;19.50;14.07;;;;;;;;;;4997780;28;20136;-54
2023/08/20 01:50:09;;;;;;;18.08;12.85;;;;;;;;;;4997060;28;20877;-51
2023/08/20 01:52:36;;;;;;;;;;;;;;;;;;5000509;28;20054;-59
2023/08/20 01:55:04;;;;;;;20.45;13.02;;;;;;;;;;4999820;28;19933;-59
2023/08/20 01:57:38;;;;;;;17.85;12.40;;;;;;;;;;4999427;28;20085;-59
2023/08/20 02:00:06;;;;;;;;;;;;;;;;;;5000193;28;20046;-59
2023/08/20 02:02:34;;;;;;;17.57;13.10;;;;;;;;;;4997937;28;19922;-61
2023/08/20 02:05:08;;;;;;;16.42;12.80;;;;;;;;;;4999069;28;20304;-54
2023/08/20 02:07:37;;;;;;;18.02;13.82;;;;;;;;;;4997506;28;20052;-53
2023/08/20 02:10:18;;;;;;;24.02;13.77;;;;;;;;;;4998555;28;20050;-52
2023/08/20 02:12:51;;;;;;;19.65;13.07;;;;;;;;;;4995316;28;20065;-54
2023/08/20 02:15:25;;;;;;;17.15;13.20;;;;;;;;;;4997544;28;20057;-53
2023/08/20 02:17:52;;;;;;;19.10;14.23;;;;;;;;;;4997849;28;20100;-49
2023/08/20 02:20:27;;;;;;;17.05;12.90;;;;;;;;;;4997015;28;20329;-51
2023/08/20 02:22:54;;;;;;;;;;;;;;;;;;4998270;28;20042;-60
2023/08/20 02:25:21;;;;;;;16.65;13.02;;;;;;;;;;4998270;28;19921;-61
2023/08/20 02:27:55;;;;;;;15.02;12.25;;;;;;;;;;4996572;28;20249;-61
2023/08/20 02:30:23;;;;;;;18.52;12.32;;;;;;;;;;4999620;28;20049;-61
2023/08/20 02:32:50;;;;;;;17.90;12.23;;;;;;;;;;4995343;28;20049;-61
2023/08/20 02:35:24;;;;;;;20.65;12.48;;;;;;;;;;4997395;28;20514;-59
2023/08/20 02:37:51;;;;;;;19.20;12.43;;;;;;;;;;4998594;28;20113;-59
2023/08/20 02:40:25;;;;;;;15.13;11.80;;;;;;;;;;4999848;28;20045;-59
2023/08/20 02:42:52;;;;;;;16.38;11.68;;;;;;;;;;4995656;28;20550;-59
2023/08/20 02:45:19;;;;;;;16.40;11.32;;;;;;;;;;4999773;28;20053;-60
2023/08/20 02:47:53;;;;;;;21.95;12.65;;;;;;;;;;4995841;28;20467;-59
2023/08/20 02:50:21;;;;;;;14.85;11.75;;;;;;;;;;5000133;28;20054;-59
2023/08/20 02:52:54;;;;;;;16.17;10.85;;;;;;;;;;4997180;28;20498;-59
2023/08/20 02:55:21;;;;;;;15.88;11.13;;;;;;;;;;4997466;28;20354;-59
2023/08/20 02:57:48;;;;;;;18.65;11.13;;;;;;;;;;4996524;28;20057;-59
2023/08/20 03:00:22;;;;;;;17.92;11.35;;;;;;;;;;5000056;28;20058;-54
2023/08/20 03:02:49;;;;;;;13.35;10.38;;;;;;;;;;4997170;28;20050;-60
2023/08/20 03:05:23;;;;;;;15.65;9.98;;;;;;;;;;4998454;28;20054;-60
2023/08/20 03:07:50;;;;;;;15.73;10.35;;;;;;;;;;4997188;28;20053;-60
2023/08/20 03:10:18;;;;;;;15.60;10.07;;;;;;;;;;4997593;28;20513;-60
2023/08/20 03:12:52;;;;;;;11.48;9.27;;;;;;;;;;4997245;28;20592;-61
2023/08/20 03:15:19;;;;;;;11.93;9.05;;;;;;;;;;4996259;28;20101;-61
2023/08/20 03:17:53;;;;;;;14.35;9.90;;;;;;;;;;4996036;28;20058;-63
2023/08/20 03:20:20;;;;;;;13.95;9.07;;;;;;;;;;4998671;28;20482;-63
2023/08/20 03:22:48;;;;;;;11.65;9.35;;;;;;;;;;4996006;28;20349;-62
2023/08/20 03:25:22;;;;;;;13.63;9.63;;;;;;;;;;4995614;28;20085;-63
2023/08/20 03:27:50;;;;;;;11.60;9.23;;;;;;;;;;4996798;28;20058;-63
2023/08/20 03:30:17;;;;;;;13.32;9.05;;;;;;;;;;4998143;28;20053;-55
2023/08/20 03:32:51;;;;;;;15.07;9.20;;;;;;;;;;4997485;28;20530;-61
2023/08/20 03:35:18;;;;;;;14.48;9.57;;;;;;;;;;4996665;28;20105;-61
2023/08/20 03:37:45;;;;;;;12.77;10.10;;;;;;;;;;4998155;28;20581;-61
2023/08/20 03:40:19;;;;;;;17.88;10.70;;;;;;;;;;4993353;28;20490;-61
2023/08/20 03:42:46;;;;;;;14.38;10.00;;;;;;;;;;4995605;28;20409;-61
2023/08/20 03:45:20;;;;;;;31.30;13.20;;;;;;;;;;4979752;28;20491;-61
2023/08/20 03:47:47;;;;;;;16.52;8.73;;;;;;;;;;4997382;28;20133;-54
2023/08/20 03:50:15;;;;;;;11.25;8.50;;;;;;;;;;4994891;28;20590;-55
2023/08/20 03:52:49;;;;;;;11.98;9.30;;;;;;;;;;4998086;28;20117;-52
2023/08/20 03:55:16;;;;;;;13.50;8.55;;;;;;;;;;4995187;28;20132;-53
2023/08/20 03:57:50;;;;;;;12.80;9.00;;;;;;;;;;4993542;28;20089;-60
2023/08/20 04:00:17;;;;;;;12.45;7.65;;;;;;;;;;4998239;28;20062;-59
2023/08/20 04:02:45;;;;;;;12.80;9.00;;;;;;;;;;4995456;28;20058;-59
2023/08/20 04:05:18;;;;;;;11.32;7.78;;;;;;;;;;4992642;28;20057;-60
2023/08/20 04:07:46;;;;;;;5.63;4.97;;;;;;;;;;4996798;28;20053;-59
2023/08/20 04:10:14;;;;;;;10.25;6.70;;;;;;;;;;4998420;28;20525;-60
2023/08/20 04:12:47;;;;;;;10.63;6.78;;;;;;;;;;4993800;28;20058;-60
2023/08/20 04:15:14;;;;;;;;;;;;;;;;;;4996696;28;20054;-54
2023/08/20 04:17:48;;;;;;;10.60;6.45;;;;;;;;;;4995351;28;20455;-53
2023/08/20 04:20:16;;;;;;;10.45;6.50;;;;;;;;;;4998884;28;20107;-55
2023/08/20 04:22:44;;;;;;;8.23;6.43;;;;;;;;;;4995816;28;20057;-54
2023/08/20 04:25:18;;;;;;;9.90;6.78;;;;;;;;;;4992790;28;20372;-60
2023/08/20 04:27:45;;;;;;;11.80;6.93;;;;;;;;;;4997208;28;20132;-63
2023/08/20 04:30:19;;;;;;;9.02;6.78;;;;;;;;;;4996680;28;20159;-60
2023/08/20 04:32:47;;;;;;;12.80;6.65;;;;;;;;;;4996516;28;20070;-60
2023/08/20 04:35:14;;;;;;;9.63;6.85;;;;;;;;;;4997951;28;20411;-60
2023/08/20 04:37:48;;;;;;;7.03;6.30;;;;;;;;;;4999006;28;20045;-59
2023/08/20 04:40:15;;;;;;;12.95;7.10;;;;;;;;;;4999085;28;20510;-60
2023/08/20 04:42:49;;;;;;;12.90;6.68;;;;;;;;;;4999168;28;20494;-60
2023/08/20 04:45:19;;;;;;;10.30;6.93;;;;;;;;;;5000489;28;20132;-60
2023/08/20 04:47:46;;;;;;;12.20;6.82;;;;;;;;;;4999056;28;20112;-61
2023/08/20 04:50:20;;;;;;;13.82;7.30;;;;;;;;;;4994708;28;20044;-59
2023/08/20 04:52:48;;;;;;;10.27;7.00;;;;;;;;;;4998504;28;20127;-60
2023/08/20 04:55:29;;;;;;;7.18;5.45;;;;;;;;;;4997616;28;20108;-53
2023/08/20 04:57:56;;;;;;;8.40;5.47;;;;;;;;;;5000488;28;20053;-58
2023/08/20 05:00:30;;;;;;;6.97;5.30;;;;;;;;;;4997398;28;20523;-57
2023/08/20 05:02:58;;;;;;;8.00;6.43;;;;;;;;;;4996295;28;20509;-58
2023/08/20 05:05:32;;;;;;;10.32;6.57;;;;;;;;;;4996843;28;20115;-58
2023/08/20 05:07:59;;;;;;;11.45;6.60;;;;;;;;;;5001275;28;20049;-59
2023/08/20 05:10:27;;;;;;;9.07;6.03;;;;;;;;;;4997657;28;20061;-58
2023/08/20 05:13:08;;;;;;;9.63;6.35;;;;;;;;;;5000175;28;20577;-61
2023/08/20 05:15:35;;;;;;;12.10;6.43;;;;;;;;;;4997211;28;20368;-61
2023/08/20 05:18:09;;;;;;;8.07;6.18;;;;;;;;;;4999023;28;20611;-61
2023/08/20 05:20:36;;;;;;;8.05;6.38;;;;;;;;;;4999272;28;20498;-61
2023/08/20 05:23:10;;;;;;;9.40;6.15;;;;;;;;;;4997695;28;20049;-60
2023/08/20 05:25:37;;;;;;;8.85;5.93;;;;;;;;;;4997139;28;20132;-53
2023/08/20 05:28:04;;;;;;;7.22;5.35;;;;;;;;;;4998451;28;20062;-54
2023/08/20 05:30:38;;;;;;;9.80;5.53;;;;;;;;;;4998539;28;20058;-52
2023/08/20 05:33:05;;;;;;;11.70;5.53;;;;;;;;;;4996548;28;20441;-53
2023/08/20 05:35:39;;;;;;;7.93;6.13;;;;;;;;;;5002685;28;20054;-50
2023/08/20 05:38:07;;;;;;;11.60;6.95;;;;;;;;;;4999237;28;20085;-56
2023/08/20 05:40:34;;;;;;;8.10;6.00;;;;;;;;;;4998311;28;20112;-51
2023/08/20 05:43:08;;;;;;;8.68;6.68;;;;;;;;;;4996760;28;20061;-51
2023/08/20 05:45:35;;;;;;;9.38;5.82;;;;;;;;;;5001981;28;20617;-54
2023/08/20 05:48:09;;;;;;;7.75;5.97;;;;;;;;;;4997928;28;20050;-54
2023/08/20 05:50:36;;;;;;;7.65;5.65;;;;;;;;;;4999726;28;20490;-55
2023/08/20 05:53:04;;;;;;;5.03;4.32;;;;;;;;;;4999877;28;20050;-57
2023/08/20 05:55:39;;;;;;;6.63;5.70;;;;;;;;;;4996039;28;20046;-47
2023/08/20 05:58:06;;;;;;;7.85;5.18;;;;;;;;;;5003762;28;20112;-53
2023/08/20 06:00:33;;;;;;;6.35;5.57;;;;;;;;;;5000404;28;20062;-52
2023/08/20 06:03:07;;;;;;;8.40;5.55;;;;;;;;;;5000332;28;20076;-54
2023/08/20 06:05:35;;;;;;;7.00;5.05;;;;;;;;;;4997836;28;20150;-52
2023/08/20 06:08:09;;;;;;;5.90;4.80;;;;;;;;;;4998313;28;20046;-52
2023/08/20 06:10:43;;;;;;;6.82;5.20;;;;;;;;;;4998990;28;20112;-64
2023/08/20 06:13:17;;;;;;;6.10;4.25;;;;;;;;;;4995322;28;20585;-63
2023/08/20 06:15:44;;;;;;;5.80;5.15;;;;;;;;;;4998059;28;20068;-63
2023/08/20 06:18:12;;;;;;;6.00;4.85;;;;;;;;;;4998822;28;20050;-63
2023/08/20 06:20:45;;;;;;;6.60;4.70;;;;;;;;;;4997429;28;20077;-64
2023/08/20 06:23:13;;;;;;;6.00;5.38;;;;;;;;;;4996942;28;21935;-55
2023/08/20 06:25:53;;;;;;;8.50;5.32;;;;;;;;;;4993646;28;20081;-55
2023/08/20 06:28:27;;;;;;;5.32;4.82;;;;;;;;;;4990353;28;20136;-53
2023/08/20 06:30:54;;;;;;;7.50;5.28;;;;;;;;;;5001831;28;20067;-53
2023/08/20 06:33:28;;;;;;;6.07;5.25;;;;;;;;;;4996427;28;21291;-54
2023/08/20 06:35:55;;;;;;;7.38;5.20;;;;;;;;;;5000579;28;20057;-51
2023/08/20 06:38:22;;;;;;;7.75;5.38;;;;;;;;;;4995404;28;20598;-61
2023/08/20 06:40:57;;;;;;;6.00;4.80;;;;;;;;;;5000224;28;20504;-60
2023/08/20 06:43:24;;;;;;;6.85;5.38;;;;;;;;;;4997750;28;20115;-60
2023/08/20 06:45:58;;;;;;;12.60;5.72;;;;;;;;;;4999840;28;20477;-61
2023/08/20 06:48:26;;;;;;;8.13;6.22;;;;;;;;;;4999862;28;20436;-63
2023/08/20 06:51:07;;;;;;;7.07;5.60;;;;;;;;;;4998380;28;20090;-58
2023/08/20 06:53:41;;;;;;;8.35;6.15;;;;;;;;;;4996658;28;20058;-59
2023/08/20 06:56:22;;;;;;;9.00;6.32;;;;;;;;;;4997127;28;20112;-58
2023/08/20 06:58:49;;;;;;;9.05;5.60;;;;;;;;;;5000852;28;20050;-58
2023/08/20 07:01:23;;;;;;;8.07;5.80;;;;;;;;;;4998062;28;20336;-57
2023/08/20 07:03:57;;;;;;;6.50;5.65;;;;;;;;;;4998793;28;20053;-59
2023/08/20 07:06:26;;;;;;;7.00;5.80;;;;;;;;;;4998539;28;20046;-60
2023/08/20 07:08:54;;;;;;;6.75;5.60;;;;;;;;;;5002298;28;20170;-60
2023/08/20 07:11:34;;;;;;;8.63;5.85;;;;;;;;;;5001968;28;20061;-60
2023/08/20 07:14:01;;;;;;;8.27;5.72;;;;;;;;;;5002475;28;20969;-60
2023/08/20 07:16:35;;;;;;;9.52;5.63;;;;;;;;;;5000556;28;20491;-63
2023/08/20 07:19:02;;;;;;;8.35;6.05;;;;;;;;;;4997305;28;20119;-60
2023/08/20 07:21:29;;;;;;;7.28;5.43;;;;;;;;;;5001744;28;20058;-60
2023/08/20 07:24:03;;;;;;;6.72;5.43;;;;;;;;;;5000173;28;20058;-60
2023/08/20 07:26:30;;;;;;;7.72;5.07;;;;;;;;;;5000913;28;20069;-59
2023/08/20 07:29:04;;;;;;;10.20;5.63;;;;;;;;;;4998362;28;20593;-59
2023/08/20 07:31:32;;;;;;;;;;;;;;;;;;4993580;28;20065;-59
2023/08/20 07:34:00;;;;;;;7.25;5.75;;;;;;;;;;4993372;28;19929;-63
2023/08/20 07:36:39;;;;;;;6.95;5.15;;;;;;;;;;4996598;28;20144;-63
2023/08/20 07:39:06;;;;;;;8.30;5.63;;;;;;;;;;4996606;28;20506;-63
2023/08/20 07:41:45;;;;;;;6.90;5.30;;;;;;;;;;4998102;28;20070;-63
2023/08/20 07:44:12;;;;;;;7.30;5.13;;;;;;;;;;4996830;28;20053;-60
2023/08/20 07:46:39;;;;;;;10.02;5.22;;;;;;;;;;4992497;28;20054;-55
2023/08/20 07:49:13;;;;;;;7.68;5.28;;;;;;;;;;4995396;28;20056;-60
2023/08/20 07:51:40;;;;;;;7.45;5.68;;;;;;;;;;4991393;28;20457;-59
2023/08/20 07:54:14;;;;;;;8.93;5.57;;;;;;;;;;4996337;28;20786;-59
2023/08/20 07:56:41;;;;;;;6.25;5.45;;;;;;;;;;5000192;28;20112;-60
2023/08/20 07:59:08;;;;;;;6.85;5.30;;;;;;;;;;4996654;28;20113;-59
2023/08/20 08:01:42;;;;;;;5.75;4.85;;;;;;;;;;4996143;28;20058;-59
2023/08/20 08:04:09;;;;;;;6.85;4.85;;;;;;;;;;4999163;28;20042;-64
2023/08/20 08:06:43;;;;;;;5.95;5.07;;;;;;;;;;4999441;28;20065;-68
2023/08/20 08:09:50;;;;;;;10.45;4.97;;;;;;;;;;5002072;28;20054;-65
2023/08/20 08:12:31;;;;;;;6.53;4.80;;;;;;;;;;4965902;28;20092;-62
2023/08/20 08:14:58;;;;;;;7.97;5.38;;;;;;;;;;5002610;28;20124;-66
2023/08/20 08:17:32;;;;;;;6.25;4.68;;;;;;;;;;5000129;28;20119;-55
2023/08/20 08:20:00;;;;;;;9.00;5.03;;;;;;;;;;5004414;28;20056;-55
2023/08/20 08:22:27;;;;;;;5.57;4.68;;;;;;;;;;4999231;28;20054;-54
2023/08/20 08:25:01;;;;;;;7.70;5.25;;;;;;;;;;5002536;28;20325;-53
2023/08/20 08:27:29;;;;;;;5.25;4.78;;;;;;;;;;4998493;28;20098;-48
2023/08/20 08:29:56;;;;;;;5.53;5.00;;;;;;;;;;5002164;28;20108;-54
2023/08/20 08:32:29;;;;;;;7.25;5.03;;;;;;;;;;5001403;28;20540;-57
2023/08/20 08:34:56;;;;;;;7.75;4.70;;;;;;;;;;5004370;28;21169;-58
2023/08/20 08:37:24;;;;;;;5.68;5.00;;;;;;;;;;4999893;28;20057;-58
2023/08/20 08:39:58;;;;;;;5.35;4.85;;;;;;;;;;5002962;28;20682;-58
2023/08/20 08:42:25;;;;;;;5.97;5.18;;;;;;;;;;5000527;28;20180;-54
2023/08/20 08:44:52;;;;;;;10.05;5.40;;;;;;;;;;5000917;28;20109;-58
2023/08/20 08:47:27;;;;;;;7.97;5.55;;;;;;;;;;4998267;28;20141;-57
2023/08/20 08:49:56;;;;;;;7.13;5.70;;;;;;;;;;5000817;28;20060;-58
2023/08/20 08:52:23;;;;;;;7.15;5.30;;;;;;;;;;5002293;28;20054;-58
2023/08/20 08:54:58;;;;;;;9.00;6.15;;;;;;;;;;4999413;28;20050;-57
2023/08/20 08:57:31;;;;;;;7.82;5.10;;;;;;;;;;5003106;28;20061;-57
2023/08/20 08:59:59;;;;;;;8.07;5.53;;;;;;;;;;5001760;28;20050;-64
2023/08/20 09:02:27;;;;;;;6.72;5.72;;;;;;;;;;4991268;28;20054;-64
2023/08/20 09:05:00;;;;;;;6.85;5.65;;;;;;;;;;4994233;28;20137;-64
2023/08/20 09:07:27;;;;;;;7.03;6.30;;;;;;;;;;5001597;28;20157;-63
2023/08/20 09:10:00;;;;;;;8.35;5.72;;;;;;;;;;5002339;28;20050;-59
2023/08/20 09:12:35;;;;;;;5.85;5.25;;;;;;;;;;4999176;28;20116;-58
2023/08/20 09:15:03;;;;;;;9.65;5.70;;;;;;;;;;4992028;28;20057;-64
2023/08/20 09:17:36;;;;;;;7.60;6.80;;;;;;;;;;4994865;28;20140;-64
2023/08/20 09:20:33;;;;;;;7.07;6.40;;;;;;;;;;4995709;28;20038;-64
2023/08/20 09:23:13;;;;;;;8.57;6.43;;;;;;;;;;4995159;28;20101;-64
2023/08/20 09:26:01;;;;;;;9.05;6.22;;;;;;;;;;4997546;28;20495;-63
2023/08/20 09:28:59;;;;;;;9.23;7.30;;;;;;;;;;4994284;28;20117;-53
2023/08/20 09:31:47;;;;;;;11.75;6.65;;;;;;;;;;4996822;28;20050;-58
2023/08/20 09:34:40;;;;;;;9.00;6.30;;;;;;;;;;4997026;28;20080;-58
2023/08/20 09:37:27;;;;;;;8.23;6.50;;;;;;;;;;4993446;28;20061;-57
2023/08/20 09:40:21;;;;;;;7.50;5.70;;;;;;;;;;5000786;28;20057;-58
2023/08/20 09:43:10;;;;;;;8.10;5.82;;;;;;;;;;4998607;28;20580;-57
2023/08/20 09:46:04;;;;;;;7.00;6.30;;;;;;;;;;4994802;28;20545;-63
2023/08/20 09:48:52;;;;;;;8.32;7.32;;;;;;;;;;5000983;28;20053;-64
2023/08/20 09:51:47;;;;;;;8.23;6.82;;;;;;;;;;4998025;28;20116;-61
2023/08/20 09:54:47;;;;;;;10.00;6.30;;;;;;;;;;4997719;28;20057;-61
2023/08/20 09:57:36;;;;;;;7.43;6.07;;;;;;;;;;4997562;28;20987;-61
2023/08/20 10:00:30;;;;;;;11.45;6.30;;;;;;;;;;4999888;28;20065;-61
2023/08/20 10:03:18;;;;;;;7.93;5.80;;;;;;;;;;4993645;28;20143;-61
2023/08/20 10:06:12;;;;;;;7.40;5.97;;;;;;;;;;4997024;28;20061;-51
2023/08/20 10:09:00;;;;;;;11.82;6.18;;;;;;;;;;4999159;28;20127;-63
2023/08/20 10:12:01;;;;;;;8.88;5.80;;;;;;;;;;4996962;28;20058;-64
2023/08/20 10:14:47;;;;;;;10.10;5.75;;;;;;;;;;4995771;28;20534;-64
2023/08/20 10:17:42;;;;;;;6.00;5.22;;;;;;;;;;4994548;28;20123;-64
2023/08/20 10:20:30;;;;;;;12.02;5.47;;;;;;;;;;4995136;28;20121;-64
2023/08/20 10:23:23;;;;;;;5.55;4.40;;;;;;;;;;4995139;28;20057;-53
2023/08/20 10:26:11;;;;;;;7.55;4.30;;;;;;;;;;4994059;28;20694;-59
2023/08/20 10:29:24;;;;;;;9.93;5.03;;;;;;;;;;4997779;28;20877;-58
2023/08/20 10:32:12;;;;;;;14.57;7.18;;;;;;;;;;4996579;28;20053;-58
2023/08/20 10:35:08;;;;;;;13.60;7.47;;;;;;;;;;4996592;28;20053;-59
2023/08/20 10:38:04;;;;;;;22.43;9.10;;;;;;;;;;4995175;28;20597;-58
2023/08/20 10:40:58;;;;;;;19.05;8.55;;;;;;;;;;4992290;28;20117;-58
2023/08/20 10:43:48;;;;;;;20.53;9.33;;;;;;;;;;4997067;28;20144;-61
2023/08/20 10:46:51;;;;;;;17.60;9.20;;;;;;;;;;4997863;28;20120;-51
2023/08/20 10:49:37;;;;;;;16.15;9.68;;;;;;;;;;4995981;28;20112;-55
2023/08/20 10:52:31;;;;;;;24.63;11.18;;;;;;;;;;4997746;28;20054;-53
2023/08/20 10:55:25;;;;;;;20.38;10.30;;;;;;;;;;4996182;28;20046;-54
2023/08/20 10:58:13;;;;;;;18.02;11.05;;;;;;;;;;4995581;28;20522;-53
2023/08/20 11:01:19;;;;;;;24.52;12.15;;;;;;;;;;4995830;28;20049;-55
2023/08/20 11:04:07;;;;;;;26.38;11.25;;;;;;;;;;4995525;28;20538;-64
2023/08/20 11:07:01;;;;;;;25.67;10.98;;;;;;;;;;5000040;28;20537;-65
2023/08/20 11:10:00;;;;;;;26.30;12.88;;;;;;;;;;4997939;28;20058;-65
2023/08/20 11:12:54;;;;;;;24.50;13.02;;;;;;;;;;4997561;28;20069;-63
2023/08/20 11:15:42;;;;;;;23.63;12.43;;;;;;;;;;4997134;28;20502;-64
2023/08/20 11:18:36;;;;;;;24.13;12.57;;;;;;;;;;4996866;28;20058;-64
2023/08/20 11:21:23;;;;;;;21.98;11.93;;;;;;;;;;4997423;28;21232;-64
2023/08/20 11:24:17;;;;;;;26.25;12.15;;;;;;;;;;4998162;28;20093;-64
2023/08/20 11:27:04;;;;;;;33.50;12.95;;;;;;;;;;4995133;28;20078;-64
2023/08/20 11:30:01;;;;;;;26.10;10.90;;;;;;;;;;4998794;28;20521;-59
2023/08/20 11:32:52;;;;;;;23.58;10.15;;;;;;;;;;4996930;28;20057;-61
2023/08/20 11:35:42;;;;;;;22.08;10.00;;;;;;;;;;4992727;28;20530;-61
2023/08/20 11:38:33;;;;;;;25.00;10.70;;;;;;;;;;4998127;28;20073;-61
2023/08/20 11:41:26;;;;;;;24.70;9.60;;;;;;;;;;4994317;28;20047;-61
2023/08/20 11:44:21;;;;;;;27.38;9.50;;;;;;;;;;4995915;28;20049;-62
2023/08/20 11:47:14;;;;;;;21.85;8.60;;;;;;;;;;4992889;28;20070;-59
2023/08/20 11:50:09;;;;;;;25.45;9.30;;;;;;;;;;4976976;28;20112;-59
2023/08/20 11:52:56;;;;;;;29.73;9.50;;;;;;;;;;4998228;28;20343;-59
2023/08/20 11:55:50;;;;;;;21.98;7.82;;;;;;;;;;4991462;28;20367;-59
2023/08/20 11:58:50;;;;;;;20.17;7.78;;;;;;;;;;4998799;28;20494;-59
2023/08/20 12:01:37;;;;;;;20.42;7.65;;;;;;;;;;5002262;28;20057;-60
2023/08/20 12:04:31;;;;;;;24.25;7.70;;;;;;;;;;5003212;28;20523;-59
2023/08/20 12:07:27;;;;;;;21.23;6.55;;;;;;;;;;5005259;28;20129;-59
2023/08/20 12:10:29;;;;;;;26.23;6.93;;;;;;;;;;5003709;28;20049;-59
2023/08/20 12:13:16;;;;;;;25.27;6.00;;;;;;;;;;5003131;28;20526;-59
2023/08/20 12:16:11;;;;;;;16.15;5.78;;;;;;;;;;5004193;28;20541;-63
2023/08/20 12:18:58;;;;;;;16.08;5.50;;;;;;;;;;4999391;28;20565;-63
2023/08/20 12:21:51;;;;;;;23.10;5.97;;;;;;;;;;4999813;28;20647;-63
2023/08/20 12:24:39;;;;;;;15.30;5.60;;;;;;;;;;4994740;28;20118;-63
2023/08/20 12:27:34;;;;;;;14.98;4.43;;;;;;;;;;4998216;28;20511;-65
2023/08/20 12:30:21;;;;;;;;;;;;;;;;;;4997030;28;20061;-56
2023/08/20 12:33:15;;;;;;;13.60;4.32;;;;;;;;;;4994124;28;19929;-57
2023/08/20 12:36:02;;;;;;;17.48;4.85;;;;;;;;;;5002471;28;20213;-57
2023/08/20 12:38:57;;;;;;;18.42;4.70;;;;;;;;;;5004111;28;20560;-56
2023/08/20 12:41:44;;;;;;;16.08;4.70;;;;;;;;;;4998402;28;20132;-57
2023/08/20 12:44:37;;;;;;;13.10;4.07;;;;;;;;;;5003594;28;20061;-62
2023/08/20 12:47:24;;;;;;;12.52;4.53;;;;;;;;;;4998732;28;20507;-61
2023/08/20 12:50:18;;;;;;;15.88;4.82;;;;;;;;;;5000938;28;20133;-63
2023/08/20 12:53:12;;;;;;;21.20;5.20;;;;;;;;;;4998411;28;20515;-62
2023/08/20 12:56:00;;;;;;;20.60;4.43;;;;;;;;;;4996947;28;20144;-61
2023/08/20 12:58:53;;;;;;;21.60;5.30;;;;;;;;;;4994187;28;20054;-59
2023/08/20 13:01:40;;;;;;;19.10;4.70;;;;;;;;;;4999280;28;20058;-59
2023/08/20 13:04:34;;;;;;;16.60;4.28;;;;;;;;;;4998200;28;20125;-59
2023/08/20 13:07:22;;;;;;;17.85;4.35;;;;;;;;;;5001283;28;20058;-59
2023/08/20 13:10:22;;;;;;;15.70;3.85;;;;;;;;;;5003073;28;20053;-59
2023/08/20 13:13:18;;;;;;;12.02;3.50;;;;;;;;;;5000622;28;20425;-61
2023/08/20 13:16:11;;;;;;;8.88;3.42;;;;;;;;;;5001396;28;20612;-61
2023/08/20 13:18:59;;;;;;;14.93;3.60;;;;;;;;;;4999945;28;20062;-61
2023/08/20 13:21:52;;;;;;;15.95;3.25;;;;;;;;;;5000555;28;20058;-54
2023/08/20 13:24:40;;;;;;;13.07;3.10;;;;;;;;;;4999958;28;20046;-55
2023/08/20 13:27:33;;;;;;;13.95;3.63;;;;;;;;;;4997690;28;20053;-52
2023/08/20 13:30:20;;;;;;;14.48;3.40;;;;;;;;;;5005591;28;20127;-51
2023/08/20 13:33:14;;;;;;;7.78;2.85;;;;;;;;;;5002722;28;20049;-54
2023/08/20 13:36:02;;;;;;;13.20;2.97;;;;;;;;;;5002788;28;20113;-55
2023/08/20 13:38:55;;;;;;;11.52;2.50;;;;;;;;;;5000813;28;20050;-52
2023/08/20 13:41:43;;;;;;;12.02;2.90;;;;;;;;;;5000559;28;20124;-60
2023/08/20 13:44:36;;;;;;;8.55;2.50;;;;;;;;;;5001008;28;20062;-60
2023/08/20 13:47:31;;;;;;;10.30;2.75;;;;;;;;;;5001527;28;20674;-60
2023/08/20 13:50:18;;;;;;;11.27;2.80;;;;;;;;;;5003691;28;20549;-61
2023/08/20 13:53:11;;;;;;;11.95;3.17;;;;;;;;;;5002227;28;20756;-62
2023/08/20 13:55:59;;;;;;;8.50;2.42;;;;;;;;;;4998167;28;20049;-56
2023/08/20 13:58:53;;;;;;;14.60;3.25;;;;;;;;;;4999699;28;20298;-54
2023/08/20 14:01:40;;;;;;;6.88;2.70;;;;;;;;;;4997377;28;20054;-55
2023/08/20 14:04:14;;;;;;;9.98;2.70;;;;;;;;;;4998007;28;20628;-54
2023/08/20 14:06:48;;;;;;;10.18;3.30;;;;;;;;;;4996215;28;20407;-55
2023/08/20 14:09:22;;;;;;;13.30;2.92;;;;;;;;;;5002248;28;20502;-61
2023/08/20 14:12:03;;;;;;;9.90;2.75;;;;;;;;;;4997973;28;20050;-61
2023/08/20 14:14:31;;;;;;;7.93;2.60;;;;;;;;;;4993286;28;20423;-61
2023/08/20 14:17:04;;;;;;;9.18;3.00;;;;;;;;;;4998544;28;20057;-61
2023/08/20 14:19:32;;;;;;;13.02;3.47;;;;;;;;;;5003917;28;20116;-66
2023/08/20 14:21:59;;;;;;;8.38;2.83;;;;;;;;;;5003864;28;20132;-62
2023/08/20 14:24:32;;;;;;;13.23;3.58;;;;;;;;;;5001461;28;20511;-61
2023/08/20 14:27:00;;;;;;;9.32;2.63;;;;;;;;;;5000533;28;20132;-62
2023/08/20 14:29:34;;;;;;;9.25;2.60;;;;;;;;;;4999813;28;20060;-61
2023/08/20 14:32:01;;;;;;;9.93;2.65;;;;;;;;;;4995731;28;20692;-61
2023/08/20 14:34:28;;;;;;;10.05;2.80;;;;;;;;;;4998447;28;20766;-61
2023/08/20 14:37:03;;;;;;;11.75;2.75;;;;;;;;;;4999901;28;20639;-61
2023/08/20 14:39:34;;;;;;;8.75;2.78;;;;;;;;;;4999830;28;20064;-62
2023/08/20 14:42:08;;;;;;;11.88;3.05;;;;;;;;;;4995714;28;20256;-60
2023/08/20 14:44:36;;;;;;;11.18;2.80;;;;;;;;;;4994202;28;21403;-62
2023/08/20 14:47:09;;;;;;;10.85;2.97;;;;;;;;;;4998764;28;20056;-61
2023/08/20 14:49:36;;;;;;;;;;;;;;;;;;4983386;28;20116;-65
2023/08/20 14:52:10;;;;;;;9.32;2.88;;;;;;;;;;4994538;28;19972;-65
2023/08/20 14:54:46;;;;;;;10.88;2.75;;;;;;;;;;4997423;28;20518;-65
2023/08/20 14:57:20;;;;;;;9.95;3.15;;;;;;;;;;5001059;28;20437;-65
2023/08/20 15:00:13;;;;;;;12.75;3.03;;;;;;;;;;4997128;28;20073;-65
2023/08/20 15:02:41;;;;;;;10.57;2.63;;;;;;;;;;4995185;28;20057;-65
2023/08/20 15:05:16;;;;;;;12.57;2.83;;;;;;;;;;4999758;28;20072;-65
2023/08/20 15:07:43;;;;;;;13.32;3.50;;;;;;;;;;5000701;28;20050;-61
2023/08/20 15:10:10;;;;;;;9.20;2.78;;;;;;;;;;4994918;28;21789;-61
2023/08/20 15:12:51;;;;;;;8.25;2.28;;;;;;;;;;4983395;28;20057;-61
2023/08/20 15:15:20;;;;;;;9.77;2.70;;;;;;;;;;4999650;28;20057;-61
2023/08/20 15:17:54;;;;;;;14.38;2.92;;;;;;;;;;4998444;28;20050;-63
2023/08/20 15:20:22;;;;;;;9.73;2.63;;;;;;;;;;4993499;28;20057;-59
2023/08/20 15:23:16;;;;;;;9.57;2.95;;;;;;;;;;5000318;28;20050;-58
2023/08/20 15:26:03;;;;;;;8.23;2.53;;;;;;;;;;5002976;28;20455;-59
2023/08/20 15:29:00;;;;;;;12.88;2.92;;;;;;;;;;4999146;28;20619;-59
2023/08/20 15:31:51;;;;;;;7.53;2.45;;;;;;;;;;4995179;28;20131;-58
2023/08/20 15:34:41;;;;;;;12.73;3.20;;;;;;;;;;4998289;28;20064;-61